createdAt,value
2019-05-10T00:02:50.352Z,98844.34
2019-05-10T00:08:13.224Z,98850.13
2019-05-10T00:13:24.166Z,98855.47
2019-05-10T00:18:29.211Z,98852.98
2019-05-10T00:23:34.214Z,98850.45
2019-05-10T00:28:39.229Z,98857.91
2019-05-10T00:33:44.305Z,98858.32
2019-05-10T00:38:49.350Z,98861.44
2019-05-10T00:43:54.356Z,98856.76
2019-05-10T00:48:59.399Z,98861.22
2019-05-10T00:54:04.420Z,98863.88
2019-05-10T00:59:09.402Z,98861.34
2019-05-10T01:04:14.462Z,98861.71
2019-05-10T01:09:19.503Z,98861.71
2019-05-10T01:14:25.076Z,98870.69
2019-05-10T01:19:31.162Z,98878.56
2019-05-10T01:24:41.206Z,98887.90
2019-05-10T01:29:46.236Z,98886.67
2019-05-10T01:34:51.277Z,98884.12
2019-05-10T01:39:56.320Z,98890.77
2019-05-10T01:45:01.322Z,98894.37
2019-05-10T01:50:06.832Z,98909.21
2019-05-10T01:55:11.823Z,98907.21
2019-05-10T02:00:17.783Z,98925.08
2019-05-10T02:05:23.222Z,98930.05
2019-05-10T02:10:28.275Z,98939.34
2019-05-10T02:15:33.942Z,98936.97
2019-05-10T02:20:38.967Z,98948.97
2019-05-10T02:25:44.391Z,98943.30
2019-05-10T02:30:49.385Z,98950.48
2019-05-10T02:35:54.435Z,98947.64
2019-05-10T02:40:59.756Z,98952.02
2019-05-10T02:46:04.778Z,98955.88
2019-05-10T02:51:10.221Z,98958.11
2019-05-10T02:56:29.736Z,98963.44
2019-05-10T03:01:24.069Z,98972.33
2019-05-10T03:06:29.377Z,98980.58
2019-05-10T03:11:48.922Z,98989.23
2019-05-10T03:16:53.989Z,98998.52
2019-05-10T03:22:08.222Z,99001.92
2019-05-10T03:27:13.264Z,99011.20
2019-05-10T03:32:18.281Z,99014.41
2019-05-10T03:37:23.587Z,99015.78
2019-05-10T03:42:28.607Z,99025.53
2019-05-10T03:47:33.698Z,99027.33
2019-05-10T03:52:38.711Z,99031.42
2019-05-10T03:57:43.853Z,99045.47
2019-05-10T04:02:48.859Z,99044.06
2019-05-10T04:07:53.963Z,99048.73
2019-05-10T04:12:58.997Z,99046.31
2019-05-10T04:18:04.009Z,99061.08
2019-05-10T04:23:09.026Z,99068.63
2019-05-10T04:28:14.065Z,99075.30
2019-05-10T04:33:19.488Z,99074.70
2019-05-10T04:38:24.535Z,99080.12
2019-05-10T04:43:29.950Z,99084.70
2019-05-10T04:48:36.018Z,99092.02
2019-05-10T04:53:41.034Z,99096.31
2019-05-10T04:58:46.055Z,99099.59
2019-05-10T05:03:51.085Z,99113.42
2019-05-10T05:08:56.160Z,99111.20
2019-05-10T05:14:01.679Z,99124.84
2019-05-10T05:19:06.748Z,99130.88
2019-05-10T05:24:17.108Z,99137.60
2019-05-10T05:29:18.794Z,99144.56
2019-05-10T05:34:23.936Z,99145.19
2019-05-10T05:39:28.969Z,99153.09
2019-05-10T05:44:34.073Z,99158.81
2019-05-10T05:49:39.111Z,99163.70
2019-05-10T05:54:44.163Z,99162.75
2019-05-10T05:59:49.262Z,99172.08
2019-05-10T06:04:54.320Z,99182.23
2019-05-10T06:09:59.291Z,99178.77
2019-05-10T06:15:04.497Z,99188.91
2019-05-10T06:20:10.089Z,99191.39
2019-05-10T06:25:15.228Z,99192.22
2019-05-10T06:30:20.253Z,99196.00
2019-05-10T06:35:25.319Z,99194.88
2019-05-10T06:40:36.007Z,99208.59
2019-05-10T06:45:38.860Z,99205.80
2019-05-10T06:50:43.869Z,99215.28
2019-05-10T06:55:49.025Z,99218.58
2019-05-10T07:00:54.029Z,99223.36
2019-05-10T07:05:59.463Z,99219.82
2019-05-10T07:11:04.533Z,99217.92
2019-05-10T07:16:14.447Z,99226.22
2019-05-10T07:21:16.695Z,99232.31
2019-05-10T07:26:24.120Z,99225.73
2019-05-10T07:31:28.453Z,99229.73
2019-05-10T07:36:33.513Z,99224.73
2019-05-10T07:41:39.945Z,99231.66
2019-05-10T07:46:49.722Z,99222.68
2019-05-10T07:51:52.977Z,99235.07
2019-05-10T07:56:58.021Z,99236.03
2019-05-10T08:02:05.827Z,99250.05
2019-05-10T08:07:11.017Z,99247.97
2019-05-10T08:12:16.178Z,99252.54
2019-05-10T08:17:21.229Z,99251.70
2019-05-10T08:22:26.241Z,99257.08
2019-05-10T08:27:32.437Z,99252.70
2019-05-10T08:32:37.607Z,99257.41
2019-05-10T08:37:43.452Z,99264.73
2019-05-10T08:42:54.726Z,99271.21
2019-05-10T08:48:01.028Z,99263.61
2019-05-10T08:53:10.567Z,99280.69
2019-05-10T08:58:09.059Z,99288.45
2019-05-10T09:03:18.486Z,99294.05
2019-05-10T09:08:24.786Z,99312.00
2019-05-10T09:13:28.667Z,99305.34
2019-05-10T09:18:38.247Z,99300.71
2019-05-10T09:23:42.705Z,99316.66
2019-05-10T09:28:52.734Z,99323.70
2019-05-10T09:33:54.622Z,99326.98
2019-05-10T09:38:59.665Z,99335.26
2019-05-10T09:44:05.063Z,99335.19
2019-05-10T09:49:17.809Z,99335.19
2019-05-10T09:54:23.265Z,99345.72
2019-05-10T09:59:27.672Z,99348.95
2019-05-10T10:04:32.225Z,99351.70
2019-05-10T10:09:44.467Z,99347.29
2019-05-10T10:14:47.107Z,99365.81
2019-05-10T10:19:51.657Z,99356.45
2019-05-10T10:25:00.497Z,99375.63
2019-05-10T10:30:06.558Z,99377.70
2019-05-10T10:35:13.207Z,99375.70
2019-05-10T10:40:18.306Z,99373.66
2019-05-10T10:45:23.505Z,99373.27
2019-05-10T10:50:28.674Z,99381.69
2019-05-10T10:55:37.108Z,99395.91
2019-05-10T11:00:41.088Z,99396.38
2019-05-10T11:05:51.229Z,99406.28
2019-05-10T11:10:57.024Z,99410.02
2019-05-10T11:16:09.865Z,99406.30
2019-05-10T11:21:11.188Z,99402.26
2019-05-10T11:26:15.651Z,99402.03
2019-05-10T11:31:21.374Z,99417.01
2019-05-10T11:36:26.531Z,99415.09
2019-05-10T11:41:31.672Z,99409.80
2019-05-10T11:46:36.739Z,99424.08
2019-05-10T11:51:41.797Z,99430.01
2019-05-10T11:56:46.905Z,99425.11
2019-05-10T12:01:57.984Z,99427.17
2019-05-10T12:06:58.683Z,99436.02
2019-05-10T12:12:03.765Z,99426.95
2019-05-10T12:17:13.820Z,99423.99
2019-05-10T12:22:16.131Z,99426.11
2019-05-10T12:27:27.002Z,99424.80
2019-05-10T12:32:33.553Z,99435.88
2019-05-10T12:37:39.669Z,99430.08
2019-05-10T12:42:46.834Z,99430.48
2019-05-10T12:47:51.764Z,99429.22
2019-05-10T12:53:13.767Z,99435.04
2019-05-10T12:58:05.044Z,99442.78
2019-05-10T13:03:12.849Z,99444.96
2019-05-10T13:08:17.170Z,99469.73
2019-05-10T13:13:31.383Z,99487.88
2019-05-10T13:18:50.828Z,99504.41
2019-05-10T13:23:43.163Z,99504.66
2019-05-10T13:28:48.225Z,99510.86
2019-05-10T13:33:53.234Z,99508.39
2019-05-10T13:38:58.328Z,99516.52
2019-05-10T13:44:06.469Z,99512.63
2019-05-10T13:49:13.506Z,99512.23
2019-05-10T13:54:18.897Z,99506.86
2019-05-10T13:59:24.016Z,99525.09
2019-05-10T14:04:33.985Z,99517.49
2019-05-10T14:09:35.920Z,99532.38
2019-05-10T14:14:41.071Z,99533.26
2019-05-10T14:19:46.108Z,99534.14
2019-05-10T14:24:53.258Z,99532.78
2019-05-10T14:29:57.939Z,99540.35
2019-05-10T14:35:02.961Z,99541.86
2019-05-10T14:40:08.198Z,99540.99
2019-05-10T14:45:13.402Z,99540.66
2019-05-10T14:50:25.228Z,99537.88
2019-05-10T14:55:28.021Z,99537.27
2019-05-10T15:00:32.854Z,99533.63
2019-05-10T15:05:38.478Z,99530.48
2019-05-10T15:10:43.592Z,99519.23
2019-05-10T15:15:48.695Z,99527.05
2019-05-10T15:20:53.788Z,99531.77
2019-05-10T15:26:10.438Z,99536.27
2019-05-10T15:31:06.415Z,99556.30
2019-05-10T15:36:11.753Z,99551.50
2019-05-10T15:41:21.775Z,99549.38
2019-05-10T15:46:35.453Z,99549.27
2019-05-10T15:51:36.145Z,99547.38
2019-05-10T15:56:41.367Z,99547.91
2019-05-10T16:01:45.755Z,99541.01
2019-05-10T16:06:50.939Z,99548.72
2019-05-10T16:12:01.689Z,99555.62
2019-05-10T16:17:02.843Z,99547.47
2019-05-10T16:22:07.979Z,99553.75
2019-05-10T16:27:12.987Z,99558.66
2019-05-10T16:32:18.024Z,99566.37
2019-05-10T16:37:23.051Z,99574.41
2019-05-10T16:42:34.478Z,99577.10
2019-05-10T16:47:34.914Z,99585.92
2019-05-10T16:52:40.037Z,99594.73
2019-05-10T16:57:45.277Z,99596.88
2019-05-10T17:02:50.284Z,99613.15
2019-05-10T17:07:58.777Z,99628.36
2019-05-10T17:13:04.812Z,99634.30
2019-05-10T17:18:10.547Z,99641.88
2019-05-10T17:23:15.703Z,99649.45
2019-05-10T17:28:20.815Z,99650.46
2019-05-10T17:33:26.917Z,99655.68
2019-05-10T17:38:32.313Z,99665.91
2019-05-10T17:43:37.401Z,99673.62
2019-05-10T17:48:47.279Z,99680.37
2019-05-10T17:53:54.817Z,99674.58
2019-05-10T17:58:56.180Z,99685.62
2019-05-10T18:04:01.258Z,99689.48
2019-05-10T18:09:07.299Z,99689.25
2019-05-10T18:14:17.753Z,99698.89
2019-05-10T18:19:24.703Z,99697.25
2019-05-10T18:24:35.656Z,99693.27
2019-05-10T18:29:36.899Z,99700.12
2019-05-10T18:34:41.987Z,99708.16
2019-05-10T18:39:52.289Z,99703.25
2019-05-10T18:44:54.189Z,99694.36
2019-05-10T18:49:59.452Z,99699.48
2019-05-10T18:55:04.987Z,99698.14
2019-05-10T19:00:10.432Z,99708.22
2019-05-10T19:05:24.995Z,99717.42
2019-05-10T19:10:27.410Z,99733.78
2019-05-10T19:15:32.491Z,99730.15
2019-05-10T19:20:37.593Z,99753.78
2019-05-10T19:25:45.502Z,99753.78
2019-05-10T19:30:52.672Z,99757.81
2019-05-10T19:35:56.582Z,99764.17
2019-05-10T19:41:01.714Z,99764.14
2019-05-10T19:46:07.062Z,99770.81
2019-05-10T19:51:12.507Z,99770.90
2019-05-10T19:56:17.581Z,99764.78
2019-05-10T20:01:22.733Z,99767.05
2019-05-10T20:06:28.828Z,99762.42
2019-05-10T20:11:33.940Z,99781.04
2019-05-10T20:16:52.218Z,99770.28
2019-05-10T20:21:46.609Z,99780.02
2019-05-10T20:26:51.713Z,99780.09
2019-05-10T20:31:56.737Z,99780.56
2019-05-10T20:37:02.325Z,99787.31
2019-05-10T20:42:10.521Z,99783.22
2019-05-10T20:47:16.038Z,99780.70
2019-05-10T20:52:21.503Z,99776.38
2019-05-10T20:57:26.660Z,99774.43
2019-05-10T21:02:32.276Z,99773.48
2019-05-10T21:07:37.380Z,99779.90
2019-05-10T21:12:42.462Z,99775.05
2019-05-10T21:17:47.544Z,99768.70
2019-05-10T21:22:52.634Z,99761.21
2019-05-10T21:27:57.939Z,99754.33
2019-05-10T21:33:03.118Z,99760.19
2019-05-10T21:38:08.313Z,99758.34
2019-05-10T21:43:13.479Z,99772.37
2019-05-10T21:48:22.456Z,99767.69
2019-05-10T21:53:32.355Z,99778.13
2019-05-10T21:58:41.921Z,99790.80
2019-05-10T22:03:54.812Z,99794.21
2019-05-10T22:09:03.530Z,99801.83
2019-05-10T22:14:11.917Z,99817.12
2019-05-10T22:19:19.272Z,99820.91
2019-05-10T22:24:26.679Z,99819.91
2019-05-10T22:29:32.129Z,99827.72
2019-05-10T22:34:37.185Z,99819.84
2019-05-10T22:39:42.546Z,99826.70
2019-05-10T22:44:50.112Z,99825.02
2019-05-10T22:49:55.223Z,99826.94
2019-05-10T22:55:00.885Z,99826.79
2019-05-10T23:00:07.549Z,99821.11
2019-05-10T23:05:14.316Z,99814.70
2019-05-10T23:10:19.456Z,99806.62
2019-05-10T23:15:24.590Z,99808.01
2019-05-10T23:20:29.623Z,99820.34
2019-05-10T23:25:34.704Z,99828.13
2019-05-10T23:30:39.755Z,99821.77
2019-05-10T23:35:44.798Z,99835.09
2019-05-10T23:40:49.859Z,99830.11
2019-05-10T23:45:55.683Z,99839.45
2019-05-10T23:51:00.717Z,99809.55
2019-05-10T23:56:06.136Z,99783.12
